Time;durP1;ratioP1;P1;durP2;ratioP2;P2;SDS_P1;SDS_P2;PMS_P1;PMS_P2;Temp;Humidity;BMP_temperature;BMP_pressure;BME280_temperature;BME280_humidity;BME280_pressure;Samples;Min_cycle;Max_cycle;Signal;HPM_P1;HPM_P2
2023/09/28 00:02:50;;;;;;;16.67;2.78;;;15.70;99.90;;;;;;4991406;28;20668;-76
2023/09/28 00:05:16;;;;;;;16.83;2.55;;;15.60;99.90;;;;;;4991113;28;20223;-77
2023/09/28 00:07:43;;;;;;;11.75;2.20;;;15.70;99.90;;;;;;4991336;28;20174;-76
2023/09/28 00:10:12;;;;;;;12.63;2.58;;;15.70;99.90;;;;;;4991473;28;20495;-76
2023/09/28 00:12:45;;;;;;;13.05;2.33;;;15.70;99.90;;;;;;4991652;28;20181;-76
2023/09/28 00:15:11;;;;;;;18.20;3.38;;;15.90;99.90;;;;;;4990135;28;20552;-76
2023/09/28 00:17:38;;;;;;;19.15;2.28;;;15.40;99.90;;;;;;4991290;28;20233;-75
2023/09/28 00:20:18;;;;;;;11.43;2.75;;;15.80;99.90;;;;;;4991148;28;20186;-76
2023/09/28 00:22:49;;;;;;;23.95;3.17;;;15.80;99.90;;;;;;4989941;28;20221;-76
2023/09/28 00:25:16;;;;;;;24.70;3.28;;;15.80;99.90;;;;;;4991263;28;20278;-76
2023/09/28 00:27:47;;;;;;;23.10;3.25;;;15.90;99.90;;;;;;4990250;28;20182;-77
2023/09/28 00:30:15;;;;;;;16.65;2.58;;;15.80;99.90;;;;;;4980898;28;20226;-77
2023/09/28 00:32:44;;;;;;;24.27;3.42;;;16.10;99.90;;;;;;4987517;28;20190;-78
2023/09/28 00:35:10;;;;;;;20.60;3.25;;;15.80;99.90;;;;;;4976397;28;20168;-78
2023/09/28 00:37:36;;;;;;;22.52;3.78;;;;;;;;;;4979023;28;20183;-77
2023/09/28 00:42:44;;;;;;;19.38;3.10;;;15.90;99.90;;;;;;4982398;28;20218;-76
2023/09/28 00:45:10;;;;;;;23.90;3.15;;;;;;;;;;4991423;28;20692;-78
2023/09/28 00:47:40;;;;;;;21.30;3.33;;;16.00;99.90;;;;;;4986558;28;20180;-79
2023/09/28 00:50:15;;;;;;;22.02;3.75;;;16.10;99.90;;;;;;4994934;28;20179;-79
2023/09/28 00:52:42;;;;;;;18.65;3.20;;;15.90;99.90;;;;;;4975528;28;20199;-78
2023/09/28 00:55:10;;;;;;;22.25;3.53;;;16.10;99.90;;;;;;4975475;28;20270;-78
2023/09/28 00:57:38;;;;;;;20.63;2.97;;;16.30;99.90;;;;;;4974066;28;20180;-82
2023/09/28 01:00:26;;;;;;;20.60;4.47;;;16.10;99.90;;;;;;4990065;28;20187;-78
2023/09/28 01:02:54;;;;;;;24.08;3.03;;;16.10;99.90;;;;;;4978553;28;20164;-78
2023/09/28 01:05:20;;;;;;;22.52;3.35;;;16.10;99.90;;;;;;4994670;28;20254;-79
2023/09/28 01:07:46;;;;;;;19.80;3.17;;;16.10;99.90;;;;;;4994530;28;20273;-78
2023/09/28 01:10:14;;;;;;;16.92;3.05;;;16.20;99.90;;;;;;4994402;28;20182;-79
2023/09/28 01:12:41;;;;;;;17.80;3.00;;;16.10;99.90;;;;;;4994439;28;20233;-79
2023/09/28 01:15:11;;;;;;;21.60;3.75;;;16.20;99.90;;;;;;4994449;28;20175;-78
2023/09/28 01:17:38;;;;;;;15.18;2.67;;;16.20;99.90;;;;;;4994127;28;20301;-78
2023/09/28 01:20:18;;;;;;;20.60;3.10;;;16.20;99.90;;;;;;4992060;28;20183;-79
2023/09/28 01:22:45;;;;;;;21.77;3.00;;;16.20;99.90;;;;;;4994209;28;20182;-78
2023/09/28 01:25:11;;;;;;;14.65;2.55;;;16.30;99.90;;;;;;4993112;28;20211;-79
2023/09/28 01:27:37;;;;;;;16.95;2.72;;;;;;;;;;4994197;28;20170;-78
2023/09/28 01:30:04;;;;;;;19.08;2.38;;;16.40;99.90;;;;;;4993900;28;20175;-79
2023/09/28 01:32:30;;;;;;;15.18;2.97;;;16.20;99.90;;;;;;4994169;28;20226;-78
2023/09/28 01:34:55;;;;;;;23.88;3.30;;;16.30;99.90;;;;;;4994066;28;20187;-79
2023/09/28 01:37:31;;;;;;;11.80;2.45;;;16.20;99.90;;;;;;4993755;28;20207;-79
2023/09/28 01:39:57;;;;;;;14.15;2.33;;;16.20;99.90;;;;;;4993714;28;20251;-78
2023/09/28 01:42:23;;;;;;;17.38;2.63;;;16.20;99.90;;;;;;4993796;28;20223;-78
2023/09/28 01:44:48;;;;;;;15.88;3.03;;;16.20;99.90;;;;;;4993416;28;20215;-77
2023/09/28 01:47:14;;;;;;;14.88;3.05;;;16.00;99.90;;;;;;4993834;28;20594;-79
2023/09/28 01:49:40;;;;;;;17.17;2.50;;;16.10;99.90;;;;;;4985870;28;20187;-78
2023/09/28 01:52:06;;;;;;;18.80;2.53;;;;;;;;;;4975160;28;20227;-78
2023/09/28 01:54:32;;;;;;;18.58;3.38;;;16.10;99.90;;;;;;4978879;28;20173;-77
2023/09/28 01:56:58;;;;;;;22.45;3.05;;;;;;;;;;4985540;28;20179;-77
2023/09/28 01:59:23;;;;;;;17.92;3.10;;;16.10;99.90;;;;;;4979835;28;20183;-77
2023/09/28 02:01:50;;;;;;;22.98;2.78;;;16.10;99.90;;;;;;4992949;28;20237;-77
2023/09/28 02:04:16;;;;;;;13.75;2.65;;;16.10;99.90;;;;;;4984729;28;20203;-77
2023/09/28 02:06:42;;;;;;;16.08;2.67;;;16.10;99.90;;;;;;4992322;28;20179;-77
2023/09/28 02:09:08;;;;;;;16.23;3.10;;;16.00;99.90;;;;;;4991961;28;20278;-78
2023/09/28 02:11:33;;;;;;;15.65;2.50;;;16.00;99.90;;;;;;4993275;28;20930;-77
2023/09/28 02:13:59;;;;;;;18.23;2.78;;;;;;;;;;4993026;28;20179;-77
2023/09/28 02:16:25;;;;;;;18.77;3.80;;;16.00;99.90;;;;;;4993111;28;20207;-79
2023/09/28 02:18:51;;;;;;;19.40;3.33;;;16.00;99.90;;;;;;4993191;28;20174;-80
2023/09/28 02:21:17;;;;;;;17.15;2.90;;;16.00;99.90;;;;;;4993341;28;20171;-79
2023/09/28 02:23:42;;;;;;;14.23;2.60;;;16.10;99.90;;;;;;4993132;28;20570;-78
2023/09/28 02:26:08;;;;;;;20.88;2.50;;;16.10;99.90;;;;;;4993406;28;20168;-81
2023/09/28 02:28:34;;;;;;;15.75;2.50;;;16.10;99.90;;;;;;4992859;28;20168;-80
2023/09/28 02:31:07;;;;;;;15.63;3.03;;;16.00;99.90;;;;;;4992988;28;20182;-80
2023/09/28 02:33:33;;;;;;;11.48;1.83;;;16.00;99.90;;;;;;4991727;28;20178;-80
2023/09/28 02:35:59;;;;;;;27.35;2.97;;;16.00;99.90;;;;;;4993047;28;20183;-81
2023/09/28 02:38:25;;;;;;;13.77;2.72;;;15.80;99.90;;;;;;4993093;28;20171;-79
2023/09/28 02:40:50;;;;;;;19.33;2.42;;;16.00;99.90;;;;;;4992669;28;20226;-80
2023/09/28 02:43:16;;;;;;;16.40;2.65;;;;;;;;;;4992632;28;20649;-78
2023/09/28 02:45:42;;;;;;;13.65;2.78;;;16.20;99.90;;;;;;4992919;28;20175;-80
2023/09/28 02:48:08;;;;;;;19.13;2.65;;;16.10;99.90;;;;;;4992738;28;20168;-78
2023/09/28 02:50:34;;;;;;;18.95;2.70;;;15.90;99.90;;;;;;4992056;28;20634;-78
2023/09/28 02:53:00;;;;;;;19.90;2.97;;;15.90;99.90;;;;;;4975675;28;20191;-76
2023/09/28 02:55:25;;;;;;;27.73;3.00;;;15.90;99.90;;;;;;4977344;28;20179;-77
2023/09/28 02:57:51;;;;;;;16.35;2.63;;;15.80;99.90;;;;;;4983687;28;20172;-77
2023/09/28 03:02:46;;;;;;;18.55;2.70;;;15.80;99.90;;;;;;4981519;28;20595;-77
2023/09/28 03:05:11;;;;;;;16.77;2.58;;;15.80;99.90;;;;;;4973154;28;20220;-76
2023/09/28 03:07:39;;;;;;;16.13;2.72;;;15.80;99.90;;;;;;4977844;28;20175;-77
2023/09/28 03:10:06;;;;;;;17.63;2.72;;;15.90;99.90;;;;;;4992085;28;20198;-77
2023/09/28 03:12:32;;;;;;;20.23;2.75;;;15.70;99.90;;;;;;4991902;28;20676;-77
2023/09/28 03:14:57;;;;;;;14.80;2.33;;;15.90;99.90;;;;;;4992116;28;20179;-77
2023/09/28 03:17:23;;;;;;;22.60;2.95;;;15.80;99.90;;;;;;4991930;28;20183;-77
2023/09/28 03:19:49;;;;;;;13.30;2.17;;;15.90;99.90;;;;;;4991029;28;20179;-77
2023/09/28 03:22:15;;;;;;;15.77;2.75;;;15.90;99.90;;;;;;4991981;28;20186;-77
2023/09/28 03:24:41;;;;;;;20.33;2.72;;;15.90;99.90;;;;;;4979815;28;20223;-78
2023/09/28 03:27:08;;;;;;;24.23;3.00;;;16.00;99.90;;;;;;4973809;28;20263;-79
2023/09/28 03:29:34;;;;;;;23.83;2.78;;;;;;;;;;4977235;28;20175;-78
2023/09/28 03:32:00;;;;;;;22.35;2.72;;;16.00;99.90;;;;;;4979882;28;20207;-78
2023/09/28 03:34:26;;;;;;;22.63;2.50;;;16.00;99.90;;;;;;4973056;28;20254;-78
2023/09/28 03:36:51;;;;;;;21.10;2.88;;;15.90;99.90;;;;;;4977423;28;20175;-79
2023/09/28 03:39:18;;;;;;;18.70;3.42;;;15.90;99.90;;;;;;4974778;28;20192;-78
2023/09/28 03:41:44;;;;;;;16.77;2.83;;;15.90;99.90;;;;;;4974067;28;20251;-79
2023/09/28 03:44:10;;;;;;;23.33;3.30;;;15.80;99.90;;;;;;4972931;28;20246;-78
2023/09/28 03:46:36;;;;;;;18.00;2.67;;;15.90;99.90;;;;;;4985714;28;20187;-78
2023/09/28 03:49:02;;;;;;;18.10;3.13;;;;;;;;;;4997485;28;20187;-77
2023/09/28 03:51:28;;;;;;;21.90;3.60;;;16.10;99.90;;;;;;5005607;28;20176;-78
2023/09/28 03:53:54;;;;;;;21.45;4.13;;;;;;;;;;5003581;28;20182;-77
2023/09/28 03:56:20;;;;;;;17.80;3.42;;;15.80;99.90;;;;;;4999935;28;20216;-76
2023/09/28 03:58:46;;;;;;;18.92;3.25;;;15.70;99.90;;;;;;4985586;28;20199;-75
2023/09/28 04:01:12;;;;;;;22.80;3.38;;;;;;;;;;4993271;28;20293;-77
2023/09/28 04:03:38;;;;;;;19.05;3.20;;;15.60;99.90;;;;;;4985572;28;20208;-76
2023/09/28 04:06:03;;;;;;;25.90;3.38;;;15.40;99.90;;;;;;4972445;28;20195;-75
2023/09/28 04:08:29;;;;;;;16.05;2.60;;;15.50;99.90;;;;;;4972320;28;20180;-77
2023/09/28 04:10:55;;;;;;;20.73;3.55;;;15.70;99.90;;;;;;4972648;28;20176;-76
2023/09/28 04:13:21;;;;;;;15.68;2.55;;;15.50;99.90;;;;;;4972435;28;20180;-75
2023/09/28 04:15:48;;;;;;;21.23;2.90;;;15.70;99.90;;;;;;4980569;28;20190;-77
2023/09/28 04:18:14;;;;;;;12.30;2.33;;;15.70;99.90;;;;;;4995672;28;20171;-77
2023/09/28 04:20:41;;;;;;;21.02;2.78;;;15.60;99.90;;;;;;4995916;28;20171;-77
2023/09/28 04:23:08;;;;;;;15.60;2.95;;;15.60;99.90;;;;;;4995883;28;20666;-77
2023/09/28 04:25:35;;;;;;;16.40;3.10;;;15.50;99.90;;;;;;4994036;28;20223;-77
2023/09/28 04:28:01;;;;;;;12.35;2.42;;;15.70;99.90;;;;;;4995912;28;20175;-77
2023/09/28 04:30:27;;;;;;;20.02;2.70;;;15.40;99.90;;;;;;4995525;28;20184;-76
2023/09/28 04:32:54;;;;;;;23.60;2.63;;;15.50;99.90;;;;;;4995435;28;20202;-76
2023/09/28 04:35:20;;;;;;;16.98;2.83;;;15.50;99.90;;;;;;4995294;28;20201;-75
2023/09/28 04:37:47;;;;;;;15.68;2.67;;;;;;;;;;4995064;28;20262;-76
2023/09/28 04:40:13;;;;;;;16.70;2.70;;;15.40;99.90;;;;;;4995400;28;20253;-77
2023/09/28 04:42:40;;;;;;;15.93;2.50;;;15.20;99.90;;;;;;4995031;28;20383;-76
2023/09/28 04:45:06;;;;;;;15.43;2.50;;;15.30;99.90;;;;;;4995287;28;20219;-76
2023/09/28 04:47:32;;;;;;;16.33;2.72;;;15.30;99.90;;;;;;4995030;28;20465;-77
2023/09/28 04:49:59;;;;;;;16.20;2.78;;;15.20;99.90;;;;;;4994816;28;20652;-77
2023/09/28 04:52:25;;;;;;;15.00;2.83;;;15.20;99.90;;;;;;4994663;28;20171;-76
2023/09/28 04:54:52;;;;;;;16.48;3.17;;;15.00;99.90;;;;;;4994786;28;20193;-77
2023/09/28 04:57:20;;;;;;;24.67;3.08;;;15.30;99.90;;;;;;4994799;28;20179;-76
2023/09/28 04:59:46;;;;;;;15.02;2.35;;;15.00;99.90;;;;;;4989818;28;20283;-78
2023/09/28 05:02:11;;;;;;;17.70;2.42;;;15.10;99.90;;;;;;4976565;28;20663;-78
2023/09/28 05:04:37;;;;;;;19.35;2.83;;;14.90;99.90;;;;;;4989235;28;20305;-79
2023/09/28 05:07:06;;;;;;;19.30;2.55;;;14.80;99.90;;;;;;4975205;28;20187;-77
2023/09/28 05:09:33;;;;;;;15.30;2.90;;;14.80;99.90;;;;;;4981434;28;20193;-75
2023/09/28 05:12:01;;;;;;;17.70;2.58;;;14.80;99.90;;;;;;4994318;28;20683;-75
2023/09/28 05:14:27;;;;;;;15.98;2.50;;;14.80;99.90;;;;;;4992807;28;20197;-77
2023/09/28 05:16:54;;;;;;;16.58;2.58;;;14.70;99.90;;;;;;4992824;28;20592;-75
2023/09/28 05:19:21;;;;;;;15.52;3.00;;;14.70;99.90;;;;;;4993779;28;20206;-77
2023/09/28 05:21:47;;;;;;;17.42;2.60;;;14.70;99.90;;;;;;4986741;28;20218;-76
2023/09/28 05:24:13;;;;;;;15.07;2.35;;;14.50;99.90;;;;;;4973139;28;20298;-75
2023/09/28 05:26:39;;;;;;;16.98;2.58;;;;;;;;;;4974096;28;20219;-75
2023/09/28 05:29:05;;;;;;;12.75;2.78;;;;;;;;;;4974245;28;20172;-78
2023/09/28 05:31:31;;;;;;;14.00;2.83;;;;;;;;;;4974378;28;20600;-78
2023/09/28 05:33:56;;;;;;;19.88;2.85;;;14.50;99.90;;;;;;4974359;28;20183;-77
2023/09/28 05:36:23;;;;;;;20.27;2.92;;;;;;;;;;4974242;28;20643;-77
2023/09/28 05:38:48;;;;;;;23.48;3.80;;;14.80;99.90;;;;;;4974235;28;20175;-79
2023/09/28 05:41:14;;;;;;;17.30;2.50;;;14.60;99.90;;;;;;4980193;28;20246;-77
2023/09/28 05:43:39;;;;;;;20.20;2.75;;;14.50;99.90;;;;;;4985230;28;20542;-77
2023/09/28 05:46:06;;;;;;;32.33;3.25;;;14.50;99.90;;;;;;4984584;28;20176;-79
2023/09/28 05:48:32;;;;;;;17.33;2.80;;;14.40;99.90;;;;;;4986955;28;20647;-78
2023/09/28 05:50:57;;;;;;;17.58;2.67;;;14.40;99.90;;;;;;4987358;28;20202;-77
2023/09/28 05:53:23;;;;;;;16.27;2.78;;;14.30;99.90;;;;;;4986466;28;20262;-77
2023/09/28 05:55:52;;;;;;;17.27;2.63;;;14.10;99.90;;;;;;4970222;28;20304;-77
2023/09/28 05:58:17;;;;;;;19.17;3.08;;;14.20;99.90;;;;;;4993505;28;20664;-78
2023/09/28 06:00:43;;;;;;;19.13;2.80;;;14.20;99.90;;;;;;4997278;28;20183;-78
2023/09/28 06:03:09;;;;;;;19.20;3.20;;;14.20;99.90;;;;;;4997606;28;20182;-77
2023/09/28 06:05:34;;;;;;;16.08;2.45;;;14.00;99.90;;;;;;4999230;28;20219;-77
2023/09/28 06:08:01;;;;;;;16.70;2.80;;;14.10;99.90;;;;;;4998179;28;20195;-77
2023/09/28 06:10:27;;;;;;;14.18;2.58;;;13.50;99.90;;;;;;5003612;28;20171;-77
2023/09/28 06:12:52;;;;;;;21.67;2.58;;;14.10;99.90;;;;;;5006248;28;20198;-76
2023/09/28 06:15:18;;;;;;;18.80;3.38;;;;;;;;;;5004307;28;20179;-76
2023/09/28 06:17:44;;;;;;;10.93;1.95;;;13.90;99.90;;;;;;4994840;28;20178;-76
2023/09/28 06:20:10;;;;;;;23.20;2.50;;;15.40;99.90;;;;;;4986844;28;20187;-75
2023/09/28 06:22:36;;;;;;;22.80;3.60;;;14.10;99.90;;;;;;4980117;28;20187;-76
2023/09/28 06:25:02;;;;;;;18.20;3.55;;;;;;;;;;4993317;28;20219;-75
2023/09/28 06:27:32;;;;;;;16.73;2.45;;;14.10;99.90;;;;;;4985039;28;20168;-76
2023/09/28 06:29:57;;;;;;;9.77;2.25;;;14.00;99.90;;;;;;4974293;28;20182;-76
2023/09/28 06:32:23;;;;;;;17.30;2.78;;;13.80;99.90;;;;;;4983316;28;20264;-78
2023/09/28 06:34:49;;;;;;;15.68;2.55;;;14.10;99.90;;;;;;4984755;28;20179;-77
2023/09/28 06:37:15;;;;;;;20.08;3.17;;;14.10;99.90;;;;;;4991172;28;20191;-76
2023/09/28 06:39:40;;;;;;;13.32;2.25;;;14.20;99.90;;;;;;5001233;28;20183;-77
2023/09/28 06:42:06;;;;;;;15.43;2.28;;;14.20;99.90;;;;;;4984446;28;20742;-77
2023/09/28 06:44:34;;;;;;;17.52;2.70;;;14.10;99.90;;;;;;4975332;28;20221;-77
2023/09/28 06:47:00;;;;;;;14.88;2.47;;;14.20;99.90;;;;;;4973750;28;20598;-76
2023/09/28 06:49:27;;;;;;;17.25;2.88;;;14.20;99.90;;;;;;4975200;28;20180;-76
2023/09/28 06:51:53;;;;;;;21.45;2.92;;;14.20;99.90;;;;;;4985536;28;20271;-76
2023/09/28 06:54:19;;;;;;;17.05;2.10;;;;;;;;;;4989754;28;20609;-76
2023/09/28 06:56:48;;;;;;;19.15;2.40;;;14.20;99.90;;;;;;4985226;28;20288;-76
2023/09/28 06:59:14;;;;;;;21.40;2.83;;;14.20;99.90;;;;;;4971182;28;20172;-75
2023/09/28 07:01:40;;;;;;;15.60;3.38;;;14.30;99.90;;;;;;4991481;28;20183;-76
2023/09/28 07:04:06;;;;;;;14.07;2.25;;;14.30;99.90;;;;;;4990417;28;20605;-75
2023/09/28 07:06:33;;;;;;;22.15;2.83;;;14.40;99.90;;;;;;4971969;28;20191;-75
2023/09/28 07:08:59;;;;;;;19.13;2.85;;;14.40;99.90;;;;;;4972448;28;20179;-75
2023/09/28 07:11:26;;;;;;;12.55;2.58;;;14.50;99.90;;;;;;4972746;28;20184;-74
2023/09/28 07:13:52;;;;;;;15.45;2.55;;;14.50;99.90;;;;;;4972422;28;20225;-75
2023/09/28 07:16:18;;;;;;;16.85;3.33;;;14.50;99.90;;;;;;4989461;28;20185;-75
2023/09/28 07:18:43;;;;;;;21.08;2.88;;;14.60;99.90;;;;;;4990224;28;20175;-74
2023/09/28 07:21:09;;;;;;;18.73;2.75;;;14.60;99.90;;;;;;4991774;28;20263;-75
2023/09/28 07:23:36;;;;;;;22.92;2.85;;;14.70;99.90;;;;;;4990055;28;20699;-76
2023/09/28 07:26:02;;;;;;;20.92;2.65;;;14.80;99.90;;;;;;4975901;28;20188;-76
2023/09/28 07:28:28;;;;;;;19.33;2.78;;;;;;;;;;4972131;28;20180;-76
2023/09/28 07:30:54;;;;;;;15.55;2.83;;;14.90;99.90;;;;;;4970917;28;20192;-77
2023/09/28 07:33:20;;;;;;;23.98;3.35;;;;;;;;;;4989151;28;20724;-78
2023/09/28 07:35:46;;;;;;;15.63;3.15;;;14.90;99.90;;;;;;4991178;28;20725;-76
2023/09/28 07:38:12;;;;;;;21.95;3.65;;;15.10;99.90;;;;;;4991554;28;20258;-76
2023/09/28 07:40:38;;;;;;;28.17;3.40;;;15.10;99.90;;;;;;4991258;28;20245;-75
2023/09/28 07:43:04;;;;;;;26.38;3.15;;;15.20;99.90;;;;;;4983624;28;20168;-76
2023/09/28 07:45:30;;;;;;;23.75;3.13;;;15.20;99.90;;;;;;4971783;28;20285;-76
2023/09/28 07:47:56;;;;;;;26.00;3.03;;;15.30;99.90;;;;;;4971891;28;20211;-75
2023/09/28 07:50:21;;;;;;;18.90;3.00;;;15.40;99.90;;;;;;4987828;28;20191;-76
2023/09/28 07:52:47;;;;;;;18.17;3.25;;;15.30;99.90;;;;;;4993534;28;20271;-76
2023/09/28 07:55:14;;;;;;;20.13;3.30;;;15.40;99.90;;;;;;4995055;28;20175;-75
2023/09/28 07:57:40;;;;;;;26.80;3.35;;;15.50;99.90;;;;;;4983922;28;20673;-76
2023/09/28 08:00:06;;;;;;;18.83;3.83;;;15.30;99.90;;;;;;4976045;28;20250;-77
2023/09/28 08:02:32;;;;;;;23.67;3.25;;;15.50;99.90;;;;;;4988797;28;20246;-78
2023/09/28 08:04:58;;;;;;;23.10;4.28;;;15.40;99.90;;;;;;4975834;28;20682;-77
2023/09/28 08:07:24;;;;;;;29.65;3.72;;;15.70;99.90;;;;;;4975860;28;20172;-76
2023/09/28 08:09:50;;;;;;;20.13;3.95;;;15.30;99.90;;;;;;4975896;28;20179;-78
2023/09/28 08:12:16;;;;;;;24.42;3.60;;;15.60;99.90;;;;;;4975575;28;20182;-76
2023/09/28 08:14:42;;;;;;;22.20;4.10;;;15.60;99.90;;;;;;4985219;28;20171;-77
2023/09/28 08:17:09;;;;;;;34.17;3.92;;;15.50;99.90;;;;;;4995116;28;20175;-76
2023/09/28 08:19:36;;;;;;;22.73;3.80;;;15.50;99.90;;;;;;4994205;28;20180;-77
2023/09/28 08:22:05;;;;;;;24.55;3.00;;;15.70;99.90;;;;;;4989820;28;20180;-77
2023/09/28 08:24:31;;;;;;;18.88;3.13;;;15.60;99.90;;;;;;4983430;28;20222;-75
2023/09/28 08:26:56;;;;;;;24.63;3.60;;;15.60;99.90;;;;;;4983995;28;20188;-75
2023/09/28 08:29:22;;;;;;;29.15;3.60;;;15.50;99.90;;;;;;4974179;28;20230;-75
2023/09/28 08:31:48;;;;;;;28.27;4.65;;;15.70;99.90;;;;;;4985164;28;20187;-75
2023/09/28 08:34:13;;;;;;;25.17;3.47;;;15.70;99.90;;;;;;4994350;28;20175;-75
2023/09/28 08:36:39;;;;;;;28.25;3.88;;;15.70;99.90;;;;;;4992839;28;20171;-75
2023/09/28 08:39:06;;;;;;;20.48;3.13;;;;;;;;;;4992836;28;20179;-75
2023/09/28 08:41:53;;;;;;;24.13;4.45;;;15.90;99.90;;;;;;4992533;28;20218;-75
2023/09/28 08:44:24;;;;;;;15.45;3.15;;;15.70;99.90;;;;;;4992919;28;20281;-75
2023/09/28 08:46:56;;;;;;;26.95;4.32;;;15.40;99.90;;;;;;4993196;28;20179;-76
2023/09/28 08:49:25;;;;;;;24.90;3.80;;;15.50;99.90;;;;;;4994087;28;20664;-75
2023/09/28 08:51:52;;;;;;;19.50;3.58;;;15.60;99.90;;;;;;4994327;28;20175;-75
2023/09/28 08:54:19;;;;;;;18.25;3.50;;;15.60;99.90;;;;;;4994540;28;20180;-75
2023/09/28 08:56:48;;;;;;;20.45;3.00;;;15.50;99.90;;;;;;4994430;28;20202;-75
2023/09/28 08:59:16;;;;;;;20.55;3.67;;;15.50;99.90;;;;;;4994149;28;20175;-75
2023/09/28 09:01:42;;;;;;;29.67;3.90;;;15.60;99.90;;;;;;4993731;28;20175;-75
2023/09/28 09:04:08;;;;;;;30.40;3.83;;;15.70;99.90;;;;;;4994077;28;20218;-75
2023/09/28 09:06:33;;;;;;;23.23;3.78;;;15.60;99.90;;;;;;4993017;28;20159;-75
2023/09/28 09:09:03;;;;;;;28.15;4.35;;;15.70;99.90;;;;;;4994062;28;20175;-75
2023/09/28 09:11:30;;;;;;;27.63;4.25;;;15.50;99.90;;;;;;4994197;28;20203;-75
2023/09/28 09:13:56;;;;;;;23.65;3.75;;;16.00;99.90;;;;;;4993954;28;20698;-75
2023/09/28 09:16:23;;;;;;;29.77;3.95;;;16.00;99.90;;;;;;4992935;28;20267;-75
2023/09/28 09:18:49;;;;;;;37.25;4.88;;;16.10;99.90;;;;;;4994559;28;20168;-75
2023/09/28 09:21:15;;;;;;;21.00;4.28;;;16.10;99.90;;;;;;4995715;28;20175;-75
2023/09/28 09:23:41;;;;;;;20.67;4.03;;;16.20;99.90;;;;;;4993954;28;20174;-75
2023/09/28 09:26:19;;;;;;;17.42;3.83;;;16.30;99.90;;;;;;4993655;28;20179;-75
2023/09/28 09:28:46;;;;;;;24.33;3.78;;;16.70;99.90;;;;;;4993599;28;20175;-74
2023/09/28 09:31:14;;;;;;;29.50;4.63;;;16.80;99.90;;;;;;4993464;28;20163;-74
2023/09/28 09:33:41;;;;;;;20.65;3.67;;;16.80;99.90;;;;;;4993693;28;20179;-75
2023/09/28 09:36:07;;;;;;;26.08;4.72;;;16.60;99.90;;;;;;4993490;28;20171;-74
2023/09/28 09:38:33;;;;;;;30.27;4.65;;;16.90;99.90;;;;;;4993300;28;20186;-74
2023/09/28 09:41:04;;;;;;;22.13;3.72;;;16.90;99.90;;;;;;4993570;28;20250;-74
2023/09/28 09:43:41;;;;;;;25.80;4.30;;;17.00;99.90;;;;;;4993499;28;20380;-75
2023/09/28 09:46:08;;;;;;;26.67;3.55;;;16.60;99.90;;;;;;4993403;28;20618;-75
2023/09/28 09:48:38;;;;;;;21.65;3.85;;;16.70;99.90;;;;;;4993422;28;20184;-75
2023/09/28 09:51:09;;;;;;;23.42;4.00;;;16.60;99.90;;;;;;4993584;28;20250;-76
2023/09/28 09:53:40;;;;;;;24.38;4.18;;;16.40;99.90;;;;;;4993054;28;20175;-75
2023/09/28 09:56:07;;;;;;;29.23;4.22;;;16.80;99.90;;;;;;4993297;28;20175;-76
2023/09/28 09:58:39;;;;;;;26.40;4.25;;;16.90;99.90;;;;;;4991828;28;20650;-76
2023/09/28 10:01:12;;;;;;;31.10;4.43;;;16.80;99.90;;;;;;4992903;28;20164;-75
2023/09/28 10:03:48;;;;;;;24.60;3.97;;;17.00;99.90;;;;;;4991591;28;20180;-75
2023/09/28 10:06:22;;;;;;;27.65;4.10;;;16.90;99.90;;;;;;4993185;28;20179;-75
2023/09/28 10:08:53;;;;;;;31.52;5.22;;;17.10;96.80;;;;;;4993136;28;20692;-75
2023/09/28 10:11:19;;;;;;;20.70;3.78;;;17.20;1.00;;;;;;4993146;28;20697;-76
2023/09/28 10:13:48;;;;;;;18.48;3.50;;;17.10;1.00;;;;;;4992002;28;20179;-76
2023/09/28 10:16:15;;;;;;;22.25;4.10;;;17.30;99.90;;;;;;4991321;28;20167;-76
2023/09/28 10:18:43;;;;;;;18.90;3.58;;;17.30;1.00;;;;;;4991795;28;20191;-75
2023/09/28 10:21:10;;;;;;;22.50;3.28;;;17.30;1.00;;;;;;4991963;28;20202;-75
2023/09/28 10:23:35;;;;;;;14.80;3.65;;;17.70;1.00;;;;;;4992294;28;20175;-75
2023/09/28 10:26:15;;;;;;;20.10;3.60;;;17.70;99.90;;;;;;4992181;28;20172;-75
2023/09/28 10:29:12;;;;;;;24.27;3.92;;;17.70;1.00;;;;;;4992097;28;20187;-75
2023/09/28 10:31:40;;;;;;;20.50;3.38;;;17.60;99.90;;;;;;4992286;28;20187;-75
2023/09/28 10:34:07;;;;;;;20.90;4.00;;;17.60;1.00;;;;;;4992595;28;20171;-74
2023/09/28 10:36:35;;;;;;;26.70;4.13;;;17.60;1.00;;;;;;4992493;28;20254;-76
2023/09/28 10:39:14;;;;;;;32.75;4.25;;;17.40;99.90;;;;;;4992443;28;20278;-75
2023/09/28 10:41:46;;;;;;;26.70;3.97;;;17.60;99.90;;;;;;4992278;28;20221;-75
2023/09/28 10:44:21;;;;;;;27.88;3.95;;;17.40;99.90;;;;;;4992423;28;20195;-75
2023/09/28 10:46:51;;;;;;;19.63;4.15;;;17.40;1.00;;;;;;4991183;28;20210;-74
2023/09/28 10:49:24;;;;;;;24.40;3.70;;;17.30;1.00;;;;;;4991109;28;21060;-75
2023/09/28 10:51:55;;;;;;;22.23;4.03;;;17.30;1.00;;;;;;4992163;28;20218;-75
2023/09/28 10:54:22;;;;;;;29.00;4.22;;;;;;;;;;4992343;28;20179;-76
2023/09/28 10:56:48;;;;;;;25.63;4.00;;;17.40;1.00;;;;;;4972741;28;20183;-74
2023/09/28 10:59:15;;;;;;;26.83;4.13;;;17.50;37.10;;;;;;4972714;28;20200;-74
2023/09/28 11:01:41;;;;;;;20.20;3.70;;;17.50;1.00;;;;;;4972595;28;20235;-75
2023/09/28 11:04:08;;;;;;;24.77;4.93;;;;;;;;;;4972444;28;20265;-75
2023/09/28 11:06:34;;;;;;;28.00;5.00;;;18.00;1.00;;;;;;4972664;28;20172;-75
2023/09/28 11:09:03;;;;;;;26.08;4.20;;;18.10;84.60;;;;;;4992076;28;20175;-76
2023/09/28 11:11:29;;;;;;;25.40;3.95;;;18.10;1.00;;;;;;4991937;28;20640;-75
2023/09/28 11:13:59;;;;;;;31.95;4.57;;;18.40;99.90;;;;;;4991784;28;20175;-75
2023/09/28 11:16:26;;;;;;;24.75;4.20;;;18.40;99.90;;;;;;4991727;28;20203;-74
2023/09/28 11:18:55;;;;;;;26.38;4.22;;;18.80;99.90;;;;;;4990484;28;20171;-75
2023/09/28 11:21:21;;;;;;;32.22;4.72;;;18.80;1.00;;;;;;4974486;28;20187;-74
2023/09/28 11:23:50;;;;;;;23.70;4.43;;;18.80;1.00;;;;;;4991279;28;20163;-75
2023/09/28 11:26:16;;;;;;;26.63;4.90;;;18.70;1.00;;;;;;4991485;28;20271;-74
2023/09/28 11:28:42;;;;;;;29.98;4.30;;;;;;;;;;4991607;28;20669;-76
2023/09/28 11:31:11;;;;;;;15.27;3.85;;;18.30;99.90;;;;;;4991546;28;20650;-76
2023/09/28 11:33:38;;;;;;;25.38;4.50;;;18.40;1.00;;;;;;4991799;28;20591;-77
2023/09/28 11:36:08;;;;;;;26.23;4.32;;;18.20;79.30;;;;;;4991657;28;20190;-76
2023/09/28 11:38:33;;;;;;;29.80;4.80;;;18.10;99.90;;;;;;4989881;28;20237;-74
2023/09/28 11:41:02;;;;;;;34.42;4.50;;;17.90;70.00;;;;;;4990982;28;20709;-74
2023/09/28 11:43:28;;;;;;;22.80;4.25;;;17.80;1.00;;;;;;4986656;28;20578;-74
2023/09/28 11:45:54;;;;;;;18.83;3.20;;;17.80;99.90;;;;;;4971918;28;20188;-74
2023/09/28 11:48:20;;;;;;;24.50;3.83;;;17.80;1.00;;;;;;4977343;28;20175;-74
2023/09/28 11:50:47;;;;;;;17.13;3.72;;;18.10;1.00;;;;;;4991217;28;20253;-74
2023/09/28 11:53:14;;;;;;;19.73;3.25;;;17.90;1.00;;;;;;4991116;28;20163;-74
2023/09/28 11:55:41;;;;;;;31.90;3.85;;;18.10;1.00;;;;;;4990236;28;20187;-74
2023/09/28 11:58:09;;;;;;;29.65;4.97;;;18.40;1.00;;;;;;4986444;28;20167;-76
2023/09/28 12:00:35;;;;;;;33.53;4.95;;;18.40;99.90;;;;;;4983670;28;20204;-75
2023/09/28 12:03:03;;;;;;;29.02;4.90;;;;;;;;;;4984321;28;20179;-75
2023/09/28 12:05:29;;;;;;;41.95;4.95;;;18.40;1.00;;;;;;4976599;28;20573;-75
2023/09/28 12:07:55;;;;;;;19.08;3.92;;;17.90;99.90;;;;;;4971601;28;20176;-74
2023/09/28 12:10:21;;;;;;;15.27;3.53;;;;;;;;;;4971535;28;20694;-75
2023/09/28 12:12:47;;;;;;;28.08;4.20;;;18.10;1.00;;;;;;4989563;28;20652;-77
2023/09/28 12:15:14;;;;;;;28.55;3.85;;;18.00;1.00;;;;;;4980339;28;20180;-77
2023/09/28 12:17:41;;;;;;;26.92;4.57;;;17.80;4.10;;;;;;4982670;28;20171;-76
2023/09/28 12:20:14;;;;;;;15.52;3.67;;;17.80;1.00;;;;;;4976864;28;20215;-75
2023/09/28 12:22:40;;;;;;;26.13;3.65;;;18.20;99.90;;;;;;4991016;28;20218;-76
2023/09/28 12:25:08;;;;;;;21.67;4.35;;;18.30;99.90;;;;;;4980743;28;20212;-75
2023/09/28 12:27:35;;;;;;;21.65;3.88;;;;;;;;;;4970178;28;20651;-75
2023/09/28 12:30:02;;;;;;;27.83;5.00;;;18.60;1.00;;;;;;4982414;28;20183;-75
2023/09/28 12:32:29;;;;;;;28.10;4.25;;;18.30;99.90;;;;;;4982407;28;20180;-75
2023/09/28 12:34:57;;;;;;;22.73;4.45;;;18.10;99.90;;;;;;4971831;28;20172;-75
2023/09/28 12:37:23;;;;;;;26.73;3.25;;;18.10;1.00;;;;;;4989711;28;20213;-75
2023/09/28 12:39:53;;;;;;;29.42;4.30;;;;;;;;;;4994281;28;20217;-75
2023/09/28 12:42:20;;;;;;;25.75;4.40;;;18.30;1.00;;;;;;4994531;28;20231;-76
2023/09/28 12:44:46;;;;;;;23.60;3.90;;;18.20;1.00;;;;;;4980867;28;20231;-76
2023/09/28 12:47:13;;;;;;;28.50;4.55;;;18.50;1.00;;;;;;4978810;28;20191;-76
2023/09/28 12:49:40;;;;;;;22.90;4.40;;;18.80;1.00;;;;;;4993280;28;20307;-75
2023/09/28 12:52:06;;;;;;;28.23;4.63;;;18.80;1.00;;;;;;4994428;28;20766;-74
2023/09/28 12:54:33;;;;;;;22.33;4.20;;;;;;;;;;4989614;28;20172;-75